Huvudsida
METAR-TAF:

METAR-TAF

Flygplatser :

Warszawa-Frédéric Chopins flygplats

Warszawa, Polen

latitud: 52-10N, longitud: 020-58E, höjd: 106 m

Aktuellt väderrapport

Denna rapport gjordes för 22 minuter sedan, klockan 01:30 UTC
Stilla vind
Temperatur 16°C
Fuktighet 100%
Tryck 1020 hPa
Sikt 10 km eller mer
grunt dimma

METAR: EPWA 190130Z 00000KT 9999 MIFG NSC 16/16 Q1020 NOSIG

Tid: 03:52 (01:52 UTC)

Väderprognos

Denna rapport gjordes för 2 timmar och 22 minuter sedan, klockan 23:30 UTC
Prognos gäller från 19 kl. 00 UTC till 19 kl. 24 UTC
Vind 4 kt varierande vindriktning
Sikt 10 km eller mer
Inga moln under 1 500 m eller inga cumulonimbus

TAF: EPWA 182330Z 1900/1924 VRB04KT CAVOK

Aktuella väderrapporter och prognoser från 4000 flygplatser (METAR- och TAF-rapporter).

De tillgängliga stationerna syns som gula och röda prickar på kartan.

För musen över prickarna för att se namnen på stationerna.

Klicka sedan för att få väderrapporter och prognoser.

För att ändra kartan: Klicka på de gröna knapparna med ett svart kors på för att zooma in; den gröna knappen med ett streck på för att zooma ut; eller på de gröna pilarna för angränsande kartor.


METAR-TAF: